sensor_id;sensor_type;location;lat;lon;timestamp;P1;durP1;ratioP1;P2;durP2;ratioP2
83659;SDS011;73632;50.808;3.422;2024-01-27T00:01:34;27.05;;;12.85;;
83659;SDS011;73632;50.808;3.422;2024-01-27T00:03:59;31.88;;;13.02;;
83659;SDS011;73632;50.808;3.422;2024-01-27T00:06:24;26.27;;;12.38;;
83659;SDS011;73632;50.808;3.422;2024-01-27T00:08:50;25.65;;;12.05;;
83659;SDS011;73632;50.808;3.422;2024-01-27T00:11:15;28.48;;;12.57;;
83659;SDS011;73632;50.808;3.422;2024-01-27T00:13:41;32.55;;;13.38;;
83659;SDS011;73632;50.808;3.422;2024-01-27T00:16:06;36.20;;;12.38;;
83659;SDS011;73632;50.808;3.422;2024-01-27T00:18:32;23.02;;;11.80;;
83659;SDS011;73632;50.808;3.422;2024-01-27T00:20:57;33.55;;;13.20;;
83659;SDS011;73632;50.808;3.422;2024-01-27T00:23:23;27.02;;;11.13;;
83659;SDS011;73632;50.808;3.422;2024-01-27T00:25:48;25.13;;;10.07;;
83659;SDS011;73632;50.808;3.422;2024-01-27T00:28:14;21.90;;;9.50;;
83659;SDS011;73632;50.808;3.422;2024-01-27T00:30:39;21.17;;;9.52;;
83659;SDS011;73632;50.808;3.422;2024-01-27T00:33:04;29.77;;;9.80;;
83659;SDS011;73632;50.808;3.422;2024-01-27T00:35:30;29.30;;;9.82;;
83659;SDS011;73632;50.808;3.422;2024-01-27T00:37:55;31.67;;;10.05;;
83659;SDS011;73632;50.808;3.422;2024-01-27T00:40:21;21.90;;;8.80;;
83659;SDS011;73632;50.808;3.422;2024-01-27T00:42:47;23.02;;;9.95;;
83659;SDS011;73632;50.808;3.422;2024-01-27T00:45:13;29.65;;;10.20;;
83659;SDS011;73632;50.808;3.422;2024-01-27T00:47:38;20.98;;;9.10;;
83659;SDS011;73632;50.808;3.422;2024-01-27T00:50:04;26.02;;;8.55;;
83659;SDS011;73632;50.808;3.422;2024-01-27T00:52:30;24.88;;;8.45;;
83659;SDS011;73632;50.808;3.422;2024-01-27T00:54:56;22.05;;;8.80;;
83659;SDS011;73632;50.808;3.422;2024-01-27T00:57:21;24.60;;;8.88;;
83659;SDS011;73632;50.808;3.422;2024-01-27T00:59:46;23.90;;;8.57;;
83659;SDS011;73632;50.808;3.422;2024-01-27T01:02:12;27.67;;;9.25;;
83659;SDS011;73632;50.808;3.422;2024-01-27T01:04:37;22.48;;;8.40;;
83659;SDS011;73632;50.808;3.422;2024-01-27T01:07:03;19.85;;;8.27;;
83659;SDS011;73632;50.808;3.422;2024-01-27T01:09:29;28.73;;;8.70;;
83659;SDS011;73632;50.808;3.422;2024-01-27T01:11:55;17.75;;;7.15;;
83659;SDS011;73632;50.808;3.422;2024-01-27T01:14:20;20.25;;;7.82;;
83659;SDS011;73632;50.808;3.422;2024-01-27T01:16:46;30.48;;;8.80;;
83659;SDS011;73632;50.808;3.422;2024-01-27T01:19:11;23.80;;;7.60;;
83659;SDS011;73632;50.808;3.422;2024-01-27T01:21:37;18.92;;;7.25;;
83659;SDS011;73632;50.808;3.422;2024-01-27T01:24:02;30.48;;;8.40;;
83659;SDS011;73632;50.808;3.422;2024-01-27T01:26:27;27.63;;;7.63;;
83659;SDS011;73632;50.808;3.422;2024-01-27T01:28:53;21.25;;;7.47;;
83659;SDS011;73632;50.808;3.422;2024-01-27T01:31:18;30.38;;;7.95;;
83659;SDS011;73632;50.808;3.422;2024-01-27T01:33:44;19.17;;;7.82;;
83659;SDS011;73632;50.808;3.422;2024-01-27T01:36:09;23.73;;;7.28;;
83659;SDS011;73632;50.808;3.422;2024-01-27T01:38:35;27.42;;;7.60;;
83659;SDS011;73632;50.808;3.422;2024-01-27T01:41:00;30.25;;;7.22;;
83659;SDS011;73632;50.808;3.422;2024-01-27T01:43:25;19.25;;;6.85;;
83659;SDS011;73632;50.808;3.422;2024-01-27T01:45:51;26.27;;;8.27;;
83659;SDS011;73632;50.808;3.422;2024-01-27T01:48:18;24.17;;;7.82;;
83659;SDS011;73632;50.808;3.422;2024-01-27T01:50:44;27.08;;;7.78;;
83659;SDS011;73632;50.808;3.422;2024-01-27T01:53:11;21.48;;;6.93;;
83659;SDS011;73632;50.808;3.422;2024-01-27T01:55:38;27.48;;;7.28;;
83659;SDS011;73632;50.808;3.422;2024-01-27T01:58:03;30.35;;;7.28;;
83659;SDS011;73632;50.808;3.422;2024-01-27T02:00:29;24.58;;;7.28;;
83659;SDS011;73632;50.808;3.422;2024-01-27T02:02:55;22.10;;;7.38;;
83659;SDS011;73632;50.808;3.422;2024-01-27T02:05:20;18.48;;;6.60;;
83659;SDS011;73632;50.808;3.422;2024-01-27T02:07:46;25.67;;;7.10;;
83659;SDS011;73632;50.808;3.422;2024-01-27T02:10:15;18.00;;;6.78;;
83659;SDS011;73632;50.808;3.422;2024-01-27T02:12:41;27.75;;;7.10;;
83659;SDS011;73632;50.808;3.422;2024-01-27T02:15:10;18.33;;;6.63;;
83659;SDS011;73632;50.808;3.422;2024-01-27T02:17:39;18.27;;;7.18;;
83659;SDS011;73632;50.808;3.422;2024-01-27T02:20:06;22.77;;;7.85;;
83659;SDS011;73632;50.808;3.422;2024-01-27T02:22:32;25.48;;;7.40;;
83659;SDS011;73632;50.808;3.422;2024-01-27T02:24:58;30.35;;;7.25;;
83659;SDS011;73632;50.808;3.422;2024-01-27T02:27:24;22.15;;;7.00;;
83659;SDS011;73632;50.808;3.422;2024-01-27T02:29:49;27.58;;;7.15;;
83659;SDS011;73632;50.808;3.422;2024-01-27T02:32:15;20.67;;;7.38;;
83659;SDS011;73632;50.808;3.422;2024-01-27T02:34:40;24.25;;;7.57;;
83659;SDS011;73632;50.808;3.422;2024-01-27T02:37:06;23.73;;;7.07;;
83659;SDS011;73632;50.808;3.422;2024-01-27T02:39:31;22.45;;;7.53;;
83659;SDS011;73632;50.808;3.422;2024-01-27T02:41:56;29.88;;;7.00;;
83659;SDS011;73632;50.808;3.422;2024-01-27T02:44:22;22.50;;;7.32;;
83659;SDS011;73632;50.808;3.422;2024-01-27T02:46:47;27.20;;;7.43;;
83659;SDS011;73632;50.808;3.422;2024-01-27T02:49:13;21.40;;;6.97;;
83659;SDS011;73632;50.808;3.422;2024-01-27T02:51:38;24.33;;;7.88;;
83659;SDS011;73632;50.808;3.422;2024-01-27T02:54:03;25.38;;;8.07;;
83659;SDS011;73632;50.808;3.422;2024-01-27T02:56:29;19.98;;;7.13;;
83659;SDS011;73632;50.808;3.422;2024-01-27T02:58:54;25.83;;;7.05;;
83659;SDS011;73632;50.808;3.422;2024-01-27T03:01:20;32.38;;;7.30;;
83659;SDS011;73632;50.808;3.422;2024-01-27T03:03:45;22.27;;;7.60;;
83659;SDS011;73632;50.808;3.422;2024-01-27T03:06:10;33.45;;;8.80;;
83659;SDS011;73632;50.808;3.422;2024-01-27T03:08:36;28.13;;;8.15;;
83659;SDS011;73632;50.808;3.422;2024-01-27T03:11:01;19.88;;;7.40;;
83659;SDS011;73632;50.808;3.422;2024-01-27T03:13:27;27.35;;;8.48;;
83659;SDS011;73632;50.808;3.422;2024-01-27T03:15:53;20.80;;;8.65;;
83659;SDS011;73632;50.808;3.422;2024-01-27T03:18:18;19.55;;;7.85;;
83659;SDS011;73632;50.808;3.422;2024-01-27T03:20:44;29.67;;;8.65;;
83659;SDS011;73632;50.808;3.422;2024-01-27T03:23:09;21.08;;;7.03;;
83659;SDS011;73632;50.808;3.422;2024-01-27T03:25:34;19.17;;;6.85;;
83659;SDS011;73632;50.808;3.422;2024-01-27T03:28:00;21.20;;;8.18;;
83659;SDS011;73632;50.808;3.422;2024-01-27T03:30:26;21.25;;;7.90;;
83659;SDS011;73632;50.808;3.422;2024-01-27T03:32:51;23.50;;;7.05;;
83659;SDS011;73632;50.808;3.422;2024-01-27T03:35:16;32.17;;;7.43;;
83659;SDS011;73632;50.808;3.422;2024-01-27T03:37:42;20.50;;;7.95;;
83659;SDS011;73632;50.808;3.422;2024-01-27T03:40:07;29.10;;;7.53;;
83659;SDS011;73632;50.808;3.422;2024-01-27T03:42:34;25.38;;;7.60;;
83659;SDS011;73632;50.808;3.422;2024-01-27T03:44:59;20.13;;;8.02;;
83659;SDS011;73632;50.808;3.422;2024-01-27T03:47:25;30.00;;;8.02;;
83659;SDS011;73632;50.808;3.422;2024-01-27T03:49:50;31.25;;;8.48;;
83659;SDS011;73632;50.808;3.422;2024-01-27T03:52:16;25.13;;;8.60;;
83659;SDS011;73632;50.808;3.422;2024-01-27T03:54:41;22.40;;;7.82;;
83659;SDS011;73632;50.808;3.422;2024-01-27T03:57:06;20.70;;;7.13;;
83659;SDS011;73632;50.808;3.422;2024-01-27T03:59:32;29.75;;;7.85;;
83659;SDS011;73632;50.808;3.422;2024-01-27T04:01:57;26.98;;;7.53;;
83659;SDS011;73632;50.808;3.422;2024-01-27T04:04:22;22.60;;;8.60;;
83659;SDS011;73632;50.808;3.422;2024-01-27T04:06:49;20.45;;;7.97;;
83659;SDS011;73632;50.808;3.422;2024-01-27T04:09:14;25.92;;;7.82;;
83659;SDS011;73632;50.808;3.422;2024-01-27T04:11:40;23.27;;;7.75;;
83659;SDS011;73632;50.808;3.422;2024-01-27T04:14:06;22.67;;;7.53;;
83659;SDS011;73632;50.808;3.422;2024-01-27T04:16:32;16.17;;;7.22;;
83659;SDS011;73632;50.808;3.422;2024-01-27T04:18:57;36.47;;;8.23;;
83659;SDS011;73632;50.808;3.422;2024-01-27T04:21:23;17.83;;;7.97;;
83659;SDS011;73632;50.808;3.422;2024-01-27T04:23:48;26.55;;;7.63;;
83659;SDS011;73632;50.808;3.422;2024-01-27T04:26:14;33.95;;;8.57;;
83659;SDS011;73632;50.808;3.422;2024-01-27T04:28:39;20.42;;;7.65;;
83659;SDS011;73632;50.808;3.422;2024-01-27T04:31:05;25.60;;;7.57;;
83659;SDS011;73632;50.808;3.422;2024-01-27T04:33:30;25.95;;;8.00;;
83659;SDS011;73632;50.808;3.422;2024-01-27T04:35:56;35.97;;;9.85;;
83659;SDS011;73632;50.808;3.422;2024-01-27T04:38:21;30.38;;;8.27;;
83659;SDS011;73632;50.808;3.422;2024-01-27T04:40:47;33.22;;;8.43;;
83659;SDS011;73632;50.808;3.422;2024-01-27T04:43:17;22.75;;;7.00;;
83659;SDS011;73632;50.808;3.422;2024-01-27T04:45:45;28.07;;;8.80;;
83659;SDS011;73632;50.808;3.422;2024-01-27T04:48:12;25.20;;;6.68;;
83659;SDS011;73632;50.808;3.422;2024-01-27T04:50:37;23.38;;;7.80;;
83659;SDS011;73632;50.808;3.422;2024-01-27T04:53:03;23.80;;;7.88;;
83659;SDS011;73632;50.808;3.422;2024-01-27T04:55:29;23.25;;;7.35;;
83659;SDS011;73632;50.808;3.422;2024-01-27T04:57:54;30.15;;;7.63;;
83659;SDS011;73632;50.808;3.422;2024-01-27T05:00:20;21.00;;;7.55;;
83659;SDS011;73632;50.808;3.422;2024-01-27T05:02:45;24.45;;;7.70;;
83659;SDS011;73632;50.808;3.422;2024-01-27T05:05:11;22.15;;;7.32;;
83659;SDS011;73632;50.808;3.422;2024-01-27T05:07:37;21.95;;;7.15;;
83659;SDS011;73632;50.808;3.422;2024-01-27T05:10:03;24.98;;;8.15;;
83659;SDS011;73632;50.808;3.422;2024-01-27T05:12:29;25.40;;;7.35;;
83659;SDS011;73632;50.808;3.422;2024-01-27T05:14:54;29.02;;;8.35;;
83659;SDS011;73632;50.808;3.422;2024-01-27T05:17:20;23.75;;;7.72;;
83659;SDS011;73632;50.808;3.422;2024-01-27T05:19:45;28.35;;;7.85;;
83659;SDS011;73632;50.808;3.422;2024-01-27T05:22:11;27.52;;;8.85;;
83659;SDS011;73632;50.808;3.422;2024-01-27T05:24:36;19.70;;;7.65;;
83659;SDS011;73632;50.808;3.422;2024-01-27T05:27:02;26.13;;;7.80;;
83659;SDS011;73632;50.808;3.422;2024-01-27T05:29:27;27.85;;;7.80;;
83659;SDS011;73632;50.808;3.422;2024-01-27T05:31:53;25.80;;;8.05;;
83659;SDS011;73632;50.808;3.422;2024-01-27T05:34:19;17.27;;;7.60;;
83659;SDS011;73632;50.808;3.422;2024-01-27T05:36:44;28.48;;;9.05;;
83659;SDS011;73632;50.808;3.422;2024-01-27T05:39:10;52.05;;;7.80;;
83659;SDS011;73632;50.808;3.422;2024-01-27T05:41:35;22.70;;;8.57;;
83659;SDS011;73632;50.808;3.422;2024-01-27T05:44:00;20.02;;;8.25;;
83659;SDS011;73632;50.808;3.422;2024-01-27T05:46:26;21.23;;;7.97;;
83659;SDS011;73632;50.808;3.422;2024-01-27T05:48:52;31.52;;;8.45;;
83659;SDS011;73632;50.808;3.422;2024-01-27T05:51:19;26.80;;;8.10;;
83659;SDS011;73632;50.808;3.422;2024-01-27T05:53:45;23.83;;;8.18;;
83659;SDS011;73632;50.808;3.422;2024-01-27T05:56:11;32.70;;;8.65;;
83659;SDS011;73632;50.808;3.422;2024-01-27T05:58:37;28.23;;;8.65;;
83659;SDS011;73632;50.808;3.422;2024-01-27T06:01:03;20.13;;;8.43;;
83659;SDS011;73632;50.808;3.422;2024-01-27T06:03:28;26.48;;;8.13;;
83659;SDS011;73632;50.808;3.422;2024-01-27T06:05:54;29.48;;;8.45;;
83659;SDS011;73632;50.808;3.422;2024-01-27T06:08:19;28.63;;;8.88;;
83659;SDS011;73632;50.808;3.422;2024-01-27T06:10:45;68.00;;;12.40;;
83659;SDS011;73632;50.808;3.422;2024-01-27T06:13:11;65.70;;;14.10;;
83659;SDS011;73632;50.808;3.422;2024-01-27T06:15:36;34.78;;;9.27;;
83659;SDS011;73632;50.808;3.422;2024-01-27T06:18:02;29.02;;;8.63;;
83659;SDS011;73632;50.808;3.422;2024-01-27T06:20:27;21.60;;;8.75;;
83659;SDS011;73632;50.808;3.422;2024-01-27T06:22:53;33.47;;;9.20;;
83659;SDS011;73632;50.808;3.422;2024-01-27T06:25:18;25.02;;;8.43;;
83659;SDS011;73632;50.808;3.422;2024-01-27T06:27:45;24.80;;;8.30;;
83659;SDS011;73632;50.808;3.422;2024-01-27T06:30:11;31.98;;;8.85;;
83659;SDS011;73632;50.808;3.422;2024-01-27T06:32:36;28.98;;;8.68;;
83659;SDS011;73632;50.808;3.422;2024-01-27T06:35:03;35.40;;;8.30;;
83659;SDS011;73632;50.808;3.422;2024-01-27T06:37:28;32.20;;;8.98;;
83659;SDS011;73632;50.808;3.422;2024-01-27T06:39:54;23.70;;;8.50;;
83659;SDS011;73632;50.808;3.422;2024-01-27T06:42:19;25.90;;;7.28;;
83659;SDS011;73632;50.808;3.422;2024-01-27T06:44:45;26.88;;;8.05;;
83659;SDS011;73632;50.808;3.422;2024-01-27T06:47:10;28.67;;;8.45;;
83659;SDS011;73632;50.808;3.422;2024-01-27T06:49:36;24.13;;;7.65;;
83659;SDS011;73632;50.808;3.422;2024-01-27T06:52:02;25.00;;;7.47;;
83659;SDS011;73632;50.808;3.422;2024-01-27T06:54:27;20.45;;;7.15;;
83659;SDS011;73632;50.808;3.422;2024-01-27T06:56:53;27.55;;;7.97;;
83659;SDS011;73632;50.808;3.422;2024-01-27T06:59:18;23.50;;;6.95;;
83659;SDS011;73632;50.808;3.422;2024-01-27T07:01:47;25.58;;;7.35;;
83659;SDS011;73632;50.808;3.422;2024-01-27T07:04:16;19.30;;;7.40;;
83659;SDS011;73632;50.808;3.422;2024-01-27T07:06:42;22.85;;;8.07;;
83659;SDS011;73632;50.808;3.422;2024-01-27T07:09:07;28.42;;;8.38;;
83659;SDS011;73632;50.808;3.422;2024-01-27T07:11:34;22.33;;;8.63;;
83659;SDS011;73632;50.808;3.422;2024-01-27T07:14:03;27.25;;;7.88;;
83659;SDS011;73632;50.808;3.422;2024-01-27T07:16:29;26.58;;;8.43;;
83659;SDS011;73632;50.808;3.422;2024-01-27T07:18:54;26.85;;;8.13;;
83659;SDS011;73632;50.808;3.422;2024-01-27T07:21:20;33.38;;;8.35;;
83659;SDS011;73632;50.808;3.422;2024-01-27T07:23:45;23.13;;;8.10;;
83659;SDS011;73632;50.808;3.422;2024-01-27T07:26:11;28.80;;;8.75;;
83659;SDS011;73632;50.808;3.422;2024-01-27T07:28:36;27.63;;;8.52;;
83659;SDS011;73632;50.808;3.422;2024-01-27T07:31:02;28.25;;;8.05;;
83659;SDS011;73632;50.808;3.422;2024-01-27T07:33:28;22.85;;;8.13;;
83659;SDS011;73632;50.808;3.422;2024-01-27T07:35:54;27.10;;;7.95;;
83659;SDS011;73632;50.808;3.422;2024-01-27T07:38:19;24.55;;;7.40;;
83659;SDS011;73632;50.808;3.422;2024-01-27T07:40:45;28.90;;;8.45;;
83659;SDS011;73632;50.808;3.422;2024-01-27T07:43:10;27.10;;;6.93;;
83659;SDS011;73632;50.808;3.422;2024-01-27T07:45:35;17.48;;;7.35;;
83659;SDS011;73632;50.808;3.422;2024-01-27T07:48:01;25.95;;;8.68;;
83659;SDS011;73632;50.808;3.422;2024-01-27T07:50:26;24.35;;;7.95;;
83659;SDS011;73632;50.808;3.422;2024-01-27T07:52:52;25.58;;;7.35;;
83659;SDS011;73632;50.808;3.422;2024-01-27T07:55:17;25.50;;;8.02;;
83659;SDS011;73632;50.808;3.422;2024-01-27T07:57:43;25.40;;;7.47;;
83659;SDS011;73632;50.808;3.422;2024-01-27T08:00:09;22.75;;;7.28;;
83659;SDS011;73632;50.808;3.422;2024-01-27T08:02:35;23.60;;;7.00;;
83659;SDS011;73632;50.808;3.422;2024-01-27T08:05:00;20.33;;;7.43;;
83659;SDS011;73632;50.808;3.422;2024-01-27T08:07:28;22.58;;;8.05;;
83659;SDS011;73632;50.808;3.422;2024-01-27T08:09:54;29.95;;;7.45;;
83659;SDS011;73632;50.808;3.422;2024-01-27T08:12:19;28.73;;;7.75;;
83659;SDS011;73632;50.808;3.422;2024-01-27T08:14:45;22.30;;;6.68;;
83659;SDS011;73632;50.808;3.422;2024-01-27T08:17:10;24.13;;;6.40;;
83659;SDS011;73632;50.808;3.422;2024-01-27T08:19:36;25.50;;;6.95;;
83659;SDS011;73632;50.808;3.422;2024-01-27T08:22:02;24.70;;;7.60;;
83659;SDS011;73632;50.808;3.422;2024-01-27T08:24:28;23.17;;;6.72;;
83659;SDS011;73632;50.808;3.422;2024-01-27T08:26:53;23.45;;;7.15;;
83659;SDS011;73632;50.808;3.422;2024-01-27T08:29:19;22.95;;;6.85;;
83659;SDS011;73632;50.808;3.422;2024-01-27T08:31:44;21.80;;;6.28;;
83659;SDS011;73632;50.808;3.422;2024-01-27T08:34:10;18.08;;;5.85;;
83659;SDS011;73632;50.808;3.422;2024-01-27T08:36:37;19.50;;;7.05;;
83659;SDS011;73632;50.808;3.422;2024-01-27T08:39:03;17.98;;;6.38;;
83659;SDS011;73632;50.808;3.422;2024-01-27T08:41:29;28.67;;;8.05;;
83659;SDS011;73632;50.808;3.422;2024-01-27T08:43:54;19.05;;;6.63;;
83659;SDS011;73632;50.808;3.422;2024-01-27T08:46:20;30.05;;;6.63;;
83659;SDS011;73632;50.808;3.422;2024-01-27T08:48:47;28.15;;;6.55;;
83659;SDS011;73632;50.808;3.422;2024-01-27T08:51:12;22.63;;;6.82;;
83659;SDS011;73632;50.808;3.422;2024-01-27T08:53:38;33.55;;;7.65;;
83659;SDS011;73632;50.808;3.422;2024-01-27T08:56:03;23.27;;;6.97;;
83659;SDS011;73632;50.808;3.422;2024-01-27T08:58:29;21.65;;;6.50;;
83659;SDS011;73632;50.808;3.422;2024-01-27T09:00:55;14.25;;;5.85;;
83659;SDS011;73632;50.808;3.422;2024-01-27T09:03:21;17.48;;;5.65;;
83659;SDS011;73632;50.808;3.422;2024-01-27T09:05:46;23.45;;;5.90;;
83659;SDS011;73632;50.808;3.422;2024-01-27T09:08:12;19.33;;;6.10;;
83659;SDS011;73632;50.808;3.422;2024-01-27T09:10:37;25.30;;;6.25;;
83659;SDS011;73632;50.808;3.422;2024-01-27T09:13:03;19.55;;;5.90;;
83659;SDS011;73632;50.808;3.422;2024-01-27T09:15:30;24.02;;;5.95;;
83659;SDS011;73632;50.808;3.422;2024-01-27T09:17:55;28.35;;;6.47;;
83659;SDS011;73632;50.808;3.422;2024-01-27T09:20:21;22.13;;;5.95;;
83659;SDS011;73632;50.808;3.422;2024-01-27T09:22:47;16.15;;;6.07;;
83659;SDS011;73632;50.808;3.422;2024-01-27T09:25:14;18.55;;;5.20;;
83659;SDS011;73632;50.808;3.422;2024-01-27T09:27:40;18.88;;;6.25;;
83659;SDS011;73632;50.808;3.422;2024-01-27T09:30:06;20.25;;;5.38;;
83659;SDS011;73632;50.808;3.422;2024-01-27T09:32:32;16.15;;;5.15;;
83659;SDS011;73632;50.808;3.422;2024-01-27T09:34:58;21.00;;;5.28;;
83659;SDS011;73632;50.808;3.422;2024-01-27T09:37:23;15.75;;;5.30;;
83659;SDS011;73632;50.808;3.422;2024-01-27T09:39:49;16.38;;;5.20;;
83659;SDS011;73632;50.808;3.422;2024-01-27T09:42:14;16.10;;;5.25;;
83659;SDS011;73632;50.808;3.422;2024-01-27T09:44:42;19.38;;;5.18;;
83659;SDS011;73632;50.808;3.422;2024-01-27T09:47:12;24.30;;;5.78;;
83659;SDS011;73632;50.808;3.422;2024-01-27T09:49:42;27.08;;;5.13;;
83659;SDS011;73632;50.808;3.422;2024-01-27T09:52:07;22.10;;;5.75;;
83659;SDS011;73632;50.808;3.422;2024-01-27T09:54:34;19.27;;;5.28;;
83659;SDS011;73632;50.808;3.422;2024-01-27T09:57:01;22.98;;;5.78;;
83659;SDS011;73632;50.808;3.422;2024-01-27T09:59:27;16.95;;;5.20;;
83659;SDS011;73632;50.808;3.422;2024-01-27T10:01:53;17.83;;;5.85;;
83659;SDS011;73632;50.808;3.422;2024-01-27T10:04:19;25.55;;;5.32;;
83659;SDS011;73632;50.808;3.422;2024-01-27T10:06:46;15.13;;;5.15;;
83659;SDS011;73632;50.808;3.422;2024-01-27T10:09:13;16.10;;;5.00;;
83659;SDS011;73632;50.808;3.422;2024-01-27T10:11:39;16.40;;;4.90;;
83659;SDS011;73632;50.808;3.422;2024-01-27T10:14:10;19.90;;;5.28;;
83659;SDS011;73632;50.808;3.422;2024-01-27T10:16:42;17.40;;;4.82;;
83659;SDS011;73632;50.808;3.422;2024-01-27T10:19:12;24.60;;;5.53;;
83659;SDS011;73632;50.808;3.422;2024-01-27T10:21:41;15.38;;;4.28;;
83659;SDS011;73632;50.808;3.422;2024-01-27T10:24:06;16.63;;;4.45;;
83659;SDS011;73632;50.808;3.422;2024-01-27T10:26:33;27.50;;;5.65;;
83659;SDS011;73632;50.808;3.422;2024-01-27T10:29:00;22.15;;;5.47;;
83659;SDS011;73632;50.808;3.422;2024-01-27T10:31:30;22.13;;;5.25;;
83659;SDS011;73632;50.808;3.422;2024-01-27T10:33:57;26.48;;;6.30;;
83659;SDS011;73632;50.808;3.422;2024-01-27T10:36:23;18.48;;;5.40;;
83659;SDS011;73632;50.808;3.422;2024-01-27T10:38:49;15.02;;;5.18;;
83659;SDS011;73632;50.808;3.422;2024-01-27T10:41:18;22.33;;;6.18;;
83659;SDS011;73632;50.808;3.422;2024-01-27T10:43:49;18.30;;;5.78;;
83659;SDS011;73632;50.808;3.422;2024-01-27T10:46:18;18.05;;;5.18;;
83659;SDS011;73632;50.808;3.422;2024-01-27T10:48:49;21.10;;;5.20;;
83659;SDS011;73632;50.808;3.422;2024-01-27T10:51:18;24.45;;;6.25;;
83659;SDS011;73632;50.808;3.422;2024-01-27T10:53:53;27.83;;;5.97;;
83659;SDS011;73632;50.808;3.422;2024-01-27T10:56:24;17.65;;;5.13;;
83659;SDS011;73632;50.808;3.422;2024-01-27T10:58:51;20.13;;;5.45;;
83659;SDS011;73632;50.808;3.422;2024-01-27T11:01:17;13.75;;;5.10;;
83659;SDS011;73632;50.808;3.422;2024-01-27T11:03:47;20.90;;;5.30;;
83659;SDS011;73632;50.808;3.422;2024-01-27T11:06:14;20.83;;;5.93;;
83659;SDS011;73632;50.808;3.422;2024-01-27T11:08:41;24.67;;;5.53;;
83659;SDS011;73632;50.808;3.422;2024-01-27T11:11:07;14.05;;;4.68;;
83659;SDS011;73632;50.808;3.422;2024-01-27T11:13:33;23.33;;;6.25;;
83659;SDS011;73632;50.808;3.422;2024-01-27T11:15:59;27.70;;;5.28;;
83659;SDS011;73632;50.808;3.422;2024-01-27T11:18:25;22.35;;;6.07;;
83659;SDS011;73632;50.808;3.422;2024-01-27T11:20:54;20.27;;;5.50;;
83659;SDS011;73632;50.808;3.422;2024-01-27T11:23:20;23.02;;;5.85;;
83659;SDS011;73632;50.808;3.422;2024-01-27T11:25:45;19.25;;;5.40;;
83659;SDS011;73632;50.808;3.422;2024-01-27T11:28:11;17.88;;;5.40;;
83659;SDS011;73632;50.808;3.422;2024-01-27T11:30:39;22.48;;;5.65;;
83659;SDS011;73632;50.808;3.422;2024-01-27T11:33:05;41.58;;;6.68;;
83659;SDS011;73632;50.808;3.422;2024-01-27T11:35:31;18.63;;;5.00;;
83659;SDS011;73632;50.808;3.422;2024-01-27T11:37:56;27.92;;;6.03;;
83659;SDS011;73632;50.808;3.422;2024-01-27T11:40:22;23.83;;;5.75;;
83659;SDS011;73632;50.808;3.422;2024-01-27T11:42:54;18.50;;;5.05;;
83659;SDS011;73632;50.808;3.422;2024-01-27T11:45:23;26.83;;;6.13;;
83659;SDS011;73632;50.808;3.422;2024-01-27T11:47:49;22.38;;;5.93;;
83659;SDS011;73632;50.808;3.422;2024-01-27T11:50:16;12.85;;;4.18;;
83659;SDS011;73632;50.808;3.422;2024-01-27T11:52:42;18.42;;;4.93;;
83659;SDS011;73632;50.808;3.422;2024-01-27T11:55:08;18.55;;;5.68;;
83659;SDS011;73632;50.808;3.422;2024-01-27T11:57:34;17.45;;;4.68;;
83659;SDS011;73632;50.808;3.422;2024-01-27T11:59:59;21.90;;;4.60;;
83659;SDS011;73632;50.808;3.422;2024-01-27T12:02:24;16.02;;;4.45;;
83659;SDS011;73632;50.808;3.422;2024-01-27T12:04:51;19.05;;;4.75;;
83659;SDS011;73632;50.808;3.422;2024-01-27T12:07:17;18.75;;;4.00;;
83659;SDS011;73632;50.808;3.422;2024-01-27T12:09:44;18.38;;;4.78;;
83659;SDS011;73632;50.808;3.422;2024-01-27T12:12:10;17.70;;;4.47;;
83659;SDS011;73632;50.808;3.422;2024-01-27T12:14:56;19.35;;;4.03;;
83659;SDS011;73632;50.808;3.422;2024-01-27T12:17:22;22.85;;;4.53;;
83659;SDS011;73632;50.808;3.422;2024-01-27T12:22:46;14.45;;;4.20;;
83659;SDS011;73632;50.808;3.422;2024-01-27T12:25:08;20.27;;;4.78;;
83659;SDS011;73632;50.808;3.422;2024-01-27T12:27:35;24.90;;;4.78;;
83659;SDS011;73632;50.808;3.422;2024-01-27T12:30:01;12.80;;;4.20;;
83659;SDS011;73632;50.808;3.422;2024-01-27T12:32:27;12.68;;;3.85;;
83659;SDS011;73632;50.808;3.422;2024-01-27T12:34:52;14.75;;;4.28;;
83659;SDS011;73632;50.808;3.422;2024-01-27T12:37:21;14.52;;;4.15;;
83659;SDS011;73632;50.808;3.422;2024-01-27T12:39:47;25.88;;;4.97;;
83659;SDS011;73632;50.808;3.422;2024-01-27T12:42:15;21.23;;;3.97;;
83659;SDS011;73632;50.808;3.422;2024-01-27T12:44:42;15.80;;;4.10;;
83659;SDS011;73632;50.808;3.422;2024-01-27T12:47:07;24.60;;;5.00;;
83659;SDS011;73632;50.808;3.422;2024-01-27T12:49:35;24.55;;;4.18;;
83659;SDS011;73632;50.808;3.422;2024-01-27T12:52:01;18.55;;;4.03;;
83659;SDS011;73632;50.808;3.422;2024-01-27T12:54:27;15.07;;;3.38;;
83659;SDS011;73632;50.808;3.422;2024-01-27T12:56:52;18.33;;;3.75;;
83659;SDS011;73632;50.808;3.422;2024-01-27T12:59:18;15.68;;;3.80;;
83659;SDS011;73632;50.808;3.422;2024-01-27T13:01:43;16.50;;;4.03;;
83659;SDS011;73632;50.808;3.422;2024-01-27T13:04:09;13.20;;;3.47;;
83659;SDS011;73632;50.808;3.422;2024-01-27T13:06:34;18.90;;;3.65;;
83659;SDS011;73632;50.808;3.422;2024-01-27T13:08:59;18.27;;;3.78;;
83659;SDS011;73632;50.808;3.422;2024-01-27T13:11:25;16.30;;;3.85;;
83659;SDS011;73632;50.808;3.422;2024-01-27T13:13:50;14.02;;;3.65;;
83659;SDS011;73632;50.808;3.422;2024-01-27T13:16:16;17.85;;;3.85;;
83659;SDS011;73632;50.808;3.422;2024-01-27T13:18:42;21.60;;;5.28;;
83659;SDS011;73632;50.808;3.422;2024-01-27T13:21:09;18.85;;;4.22;;
83659;SDS011;73632;50.808;3.422;2024-01-27T13:23:35;20.48;;;3.90;;
83659;SDS011;73632;50.808;3.422;2024-01-27T13:26:01;21.67;;;3.95;;
83659;SDS011;73632;50.808;3.422;2024-01-27T13:28:26;21.05;;;6.40;;
83659;SDS011;73632;50.808;3.422;2024-01-27T13:30:51;19.27;;;3.85;;
83659;SDS011;73632;50.808;3.422;2024-01-27T13:33:17;22.83;;;6.10;;
83659;SDS011;73632;50.808;3.422;2024-01-27T13:35:43;27.13;;;4.72;;
83659;SDS011;73632;50.808;3.422;2024-01-27T13:38:11;19.23;;;3.50;;
83659;SDS011;73632;50.808;3.422;2024-01-27T13:40:37;21.83;;;4.70;;
83659;SDS011;73632;50.808;3.422;2024-01-27T13:43:03;13.07;;;3.25;;
83659;SDS011;73632;50.808;3.422;2024-01-27T13:45:29;14.30;;;3.33;;
83659;SDS011;73632;50.808;3.422;2024-01-27T13:47:55;22.52;;;3.67;;
83659;SDS011;73632;50.808;3.422;2024-01-27T13:50:20;16.38;;;3.40;;
83659;SDS011;73632;50.808;3.422;2024-01-27T13:52:46;15.13;;;3.72;;
83659;SDS011;73632;50.808;3.422;2024-01-27T13:55:12;13.05;;;2.67;;
83659;SDS011;73632;50.808;3.422;2024-01-27T13:57:38;12.50;;;2.70;;
83659;SDS011;73632;50.808;3.422;2024-01-27T14:00:05;26.20;;;3.78;;
83659;SDS011;73632;50.808;3.422;2024-01-27T14:02:31;24.48;;;4.28;;
83659;SDS011;73632;50.808;3.422;2024-01-27T14:04:57;16.98;;;4.20;;
83659;SDS011;73632;50.808;3.422;2024-01-27T14:07:22;26.92;;;5.50;;
83659;SDS011;73632;50.808;3.422;2024-01-27T14:09:48;14.35;;;4.65;;
83659;SDS011;73632;50.808;3.422;2024-01-27T14:12:13;21.95;;;5.20;;
83659;SDS011;73632;50.808;3.422;2024-01-27T14:14:40;23.35;;;4.47;;
83659;SDS011;73632;50.808;3.422;2024-01-27T14:17:07;14.77;;;4.00;;
83659;SDS011;73632;50.808;3.422;2024-01-27T14:19:33;19.70;;;3.65;;
83659;SDS011;73632;50.808;3.422;2024-01-27T14:21:58;18.45;;;3.55;;
83659;SDS011;73632;50.808;3.422;2024-01-27T14:24:24;13.07;;;3.67;;
83659;SDS011;73632;50.808;3.422;2024-01-27T14:26:50;20.08;;;3.42;;
83659;SDS011;73632;50.808;3.422;2024-01-27T14:29:16;12.18;;;3.63;;